ADDS METAR Data INFO
IDs: Format: Raw Decoded Include TAF

Data at: 1612 UTC 14 Aug 2018

KHBV 141550Z AUTO 19013G18KT 10SM CLR 30/20 A2998 RMK AO2 T02980199
KHBV 141530Z AUTO 17013G17KT 10SM CLR 29/20 A2997 RMK AO2 T02930201
KHBV 141510Z AUTO 18009G17KT 10SM CLR 29/21 A2996 RMK AO2 T02860206
KHBV 141450Z AUTO 18011G17KT 10SM SCT021 28/21 A2996 RMK AO2 T02790211
KHBV 141430Z AUTO 18009G20KT 10SM SCT017 SCT023 27/22 A2996 RMK AO2 T02700216
KHBV 141410Z AUTO 17012G18KT 10SM SCT011 BKN017 BKN022 26/22 A2997 RMK AO2 T02610222
KHBV 141350Z AUTO 18012G16KT 7SM BKN008 OVC014 25/23 A2996 RMK AO2 T02520227
KHBV 141330Z AUTO 17005KT 7SM OVC006 24/23 A2996 RMK AO2 T02430229
KHBV 141310Z AUTO 00000KT 5SM BR SCT004 24/23 A2996 RMK AO2 T02380226
KHBV 141250Z AUTO 00000KT 5SM BR CLR 24/22 A2996 RMK AO2 T02350224
KHBV 141230Z AUTO 00000KT 5SM BR CLR 23/22 A2996 RMK AO2 T02320221
KHBV 141210Z AUTO 00000KT 5SM BR SCT018 23/22 A2996 RMK AO2 T02330220
KHBV 141150Z AUTO 00000KT 7SM SCT018 24/22 A2995 RMK AO2 T02350220 10403 20149
KHBV 141130Z AUTO 00000KT 7SM BKN018 24/22 A2995 RMK AO2 T02370221
KHBV 141110Z AUTO 00000KT 7SM BKN018 24/22 A2995 RMK AO2 T02400221
KHBV 141050Z AUTO 00000KT 7SM SCT020 24/22 A2995 RMK AO2 T02400221
KHBV 141030Z AUTO 00000KT 10SM SCT020 24/22 A2994 RMK AO2 T02410221
KHBV 141010Z AUTO 00000KT 10SM SCT020 24/22 A2994 RMK AO2 T02420221
KHBV 140950Z AUTO 17006KT 10SM SCT020 24/22 A2995 RMK AO2 T02420221
KHBV 140930Z AUTO 00000KT 10SM SCT018 24/22 A2995 RMK AO2 T02430220
KHBV 140910Z AUTO 18007KT 10SM SCT017 BKN021 24/22 A2995 RMK AO2 T02430221
KHBV 140850Z AUTO 18004KT 7SM BKN015 24/22 A2996 RMK AO2 T02420222
KHBV 140830Z AUTO 00000KT 7SM SCT015 24/22 A2996 RMK AO2 T02410221
KHBV 140810Z AUTO 17007KT 7SM CLR 24/22 A2996 RMK AO2 T02420222
KHBV 140750Z AUTO 16009KT 7SM CLR 24/22 A2996 RMK AO2 T02420222
KHBV 140730Z AUTO 16005KT 7SM CLR 24/22 A2997 RMK AO2 T02430221
KHBV 140710Z AUTO 16003KT 7SM CLR 25/22 A2997 RMK AO2 T02450221
KHBV 140650Z AUTO 17004KT 7SM CLR 25/22 A2998 RMK AO2 T02450221
KHBV 140630Z AUTO 16009KT 7SM CLR 25/22 A2998 RMK AO2 T02470222
KHBV 140610Z AUTO 00000KT 7SM CLR 25/22 A2998 RMK AO2 T02490223
KHBV 140550Z AUTO 00000KT 7SM CLR 25/22 A2999 RMK AO2 T02500223 10403 20149 404030149
KHBV 140530Z AUTO 15009KT 7SM CLR 25/22 A2999 RMK AO2 T02530223
KHBV 140510Z AUTO 16004KT 7SM CLR 26/22 A3000 RMK AO2 T02550222
KHBV 140450Z AUTO 00000KT 10SM CLR 26/22 A2999 RMK AO2 T02590221
KHBV 140430Z AUTO 15008G14KT 10SM CLR 26/22 A2999 RMK AO2 T02610219
KHBV 140410Z AUTO 15012G17KT 10SM CLR 27/22 A2998 RMK AO2 T02650217
KHBV 140350Z AUTO 13012G15KT 10SM CLR 27/21 A2997 RMK AO2 T02700214
KHBV 140330Z AUTO 13008KT 10SM CLR 27/21 A2997 RMK AO2 T02730212
KHBV 140310Z AUTO 00000KT 10SM CLR 28/21 A2996 RMK AO2 T02790211
KHBV 140250Z AUTO 13009KT 10SM CLR 28/21 A2995 RMK AO2 T02840209
KHBV 140230Z AUTO 13010G14KT 10SM CLR 29/21 A2994 RMK AO2 T02900207
KHBV 140210Z AUTO 13011KT 10SM CLR 30/18 A2993 RMK AO2 T03010182
KHBV 140150Z AUTO 15011G16KT 10SM CLR 31/17 A2991 RMK AO2 T03070166
KHBV 140130Z AUTO 15012G20KT 10SM CLR 31/17 A2991 RMK AO2 T03130167
KHBV 140110Z AUTO 14014G17KT 10SM CLR 32/17 A2990 RMK AO2 T03190166
KHBV 140050Z AUTO 15013G20KT 10SM CLR 33/16 A2990 RMK AO2 T03280158
KHBV 140030Z AUTO 15015G22KT 10SM CLR 34/15 A2989 RMK AO2 T03370147
KHBV 140010Z AUTO 16015G23KT 10SM CLR 34/14 A2989 RMK AO2 T03420139
KHBV 132350Z AUTO 15016G20KT 10SM CLR 35/14 A2990 RMK AO2 T03460143 10403 20149
KHBV 132330Z AUTO 16015KT 10SM CLR 35/14 A2989 RMK AO2 T03480136
KHBV 132310Z AUTO 17012G23KT 10SM CLR 35/13 A2990 RMK AO2 T03510132
KHBV 132250Z AUTO 17015G24KT 10SM CLR 35/14 A2989 RMK AO2 T03520140
KHBV 132230Z AUTO 17015G23KT 10SM CLR 36/14 A2989 RMK AO2 T03550144
KHBV 132210Z AUTO 18016G22KT 10SM SCT070 36/15 A2989 RMK AO2 LTG DSNT SW T03560147
KHBV 132150Z AUTO 15019G24KT 10SM SCT070 36/15 A2989 RMK AO2 LTG DSNT W T03600150
KHBV 132130Z AUTO 14013G26KT 10SM CLR 37/15 A2989 RMK AO2 T03670149
KHBV 132110Z AUTO 16019G25KT 10SM CLR 37/15 A2990 RMK AO2 T03700147
KHBV 132050Z AUTO 17015G20KT 10SM CLR 37/14 A2991 RMK AO2 T03710140
KHBV 132030Z AUTO 19013G25KT 10SM CLR 37/14 A2992 RMK AO2 T03650140
KHBV 132010Z AUTO 17018G24KT 10SM SCT075 36/14 A2994 RMK AO2 T03630140
KHBV 131950Z AUTO 17013G23KT 10SM CLR 37/14 A2995 RMK AO2 T03650136
KHBV 131930Z AUTO 18010G21KT 160V220 10SM CLR 36/14 A2996 RMK AO2 T03610141
KHBV 131910Z AUTO 19013G23KT 10SM CLR 36/14 A2996 RMK AO2 T03560142
KHBV 131850Z AUTO 17017G25KT 10SM SCT065 35/15 A2998 RMK AO2 T03530148
KHBV 131830Z AUTO 19017G27KT 150V220 10SM CLR 35/15 A2998 RMK AO2 T03500153
KHBV 131810Z AUTO 17019G25KT 10SM CLR 34/16 A2999 RMK AO2 T03430159
KHBV 131750Z AUTO 18019G23KT 10SM CLR 34/16 A2999 RMK AO2 T03370164 10403 20149
KHBV 131730Z AUTO 18018G24KT 10SM CLR 33/17 A3000 RMK AO2 T03310167
KHBV 131710Z AUTO 18019G28KT 10SM SCT048 33/18 A3000 RMK AO2 T03270175
KHBV 131650Z AUTO 17017G24KT 10SM CLR 32/19 A3001 RMK AO2 T03200186
KHBV 131630Z AUTO 18016G23KT 10SM SCT036 31/19 A3001 RMK AO2 T03140192
KHBV 131610Z AUTO 18013G22KT 10SM SCT036 30/20 A3002 RMK AO2 T03010201
KHBV 131555Z AUTO 17017G24KT 10SM SCT030 SCT040 29/20 A3001 RMK AO2 T02940201
KHBV 131530Z AUTO 17015G23KT 10SM SCT027 29/21 A3001 RMK AO2 T02900207
KHBV 131515Z AUTO 18014G21KT 10SM SCT021 SCT027 28/21 A3001 RMK AO2 T02820212
KHBV 131450Z AUTO 18012G20KT 10SM SCT019 SCT024 28/22 A3001 RMK AO2 T02770215
KHBV 131430Z AUTO 18012G19KT 10SM SCT015 SCT022 27/22 A3001 RMK AO2 T02710220
KHBV 131410Z AUTO 17013G20KT 7SM BKN013 OVC020 26/22 A3001 RMK AO2 T02600224
KHBV 131350Z AUTO 17011G14KT 7SM BKN009 OVC016 25/23 A3001 RMK AO2 T02540227
KHBV 131330Z AUTO 16010KT 7SM OVC009 25/23 A3001 RMK AO2 T02490229
KHBV 131310Z AUTO 16010KT 7SM OVC007 25/23 A3002 RMK AO2 T02470230
KHBV 131250Z AUTO 15003KT 5SM BR BKN007 24/23 A3001 RMK AO2 T02440227
KHBV 131230Z AUTO 00000KT 5SM BR SCT009 24/23 A3001 RMK AO2 T02420225
KHBV 131210Z AUTO 15008KT 5SM BR CLR 24/23 A3000 RMK AO2 T02420225
KHBV 131150Z AUTO 15009KT 7SM CLR 24/22 A3000 RMK AO2 T02420223 10403 20149
KHBV 131130Z AUTO 15005KT 7SM CLR 24/22 A3000 RMK AO2 T02430221
KHBV 131110Z AUTO 15006KT 7SM BKN019 25/22 A2999 RMK AO2 T02450222
KHBV 131050Z AUTO 00000KT 7SM BKN017 25/22 A2999 RMK AO2 T02450221
KHBV 131030Z AUTO 00000KT 7SM CLR 25/22 A2999 RMK AO2 T02450220
KHBV 131010Z AUTO 00000KT 7SM CLR 25/22 A2999 RMK AO2 T02480220
KHBV 130950Z AUTO 00000KT 10SM CLR 25/22 A2999 RMK AO2 T02500218
KHBV 130930Z AUTO 17006KT 10SM CLR 25/22 A2999 RMK AO2 T02500216
KHBV 130910Z AUTO 17007KT 10SM CLR 25/22 A2999 RMK AO2 T02510215
KHBV 130850Z AUTO 17006KT 10SM CLR 25/21 A3000 RMK AO2 T02510212
KHBV 130830Z AUTO 16007KT 10SM CLR 25/21 A3000 RMK AO2 T02520211
KHBV 130810Z AUTO 15006KT 10SM CLR 26/21 A2999 RMK AO2 T02550210
KHBV 130750Z AUTO 16007KT 10SM CLR 26/21 A3000 RMK AO2 T02560209
KHBV 130730Z AUTO 17007KT 10SM CLR 26/21 A3000 RMK AO2 T02570207
KHBV 130710Z AUTO 17008KT 10SM CLR 26/21 A3000 RMK AO2 T02590206
KHBV 130650Z AUTO 18009KT 10SM CLR 26/21 A3001 RMK AO2 T02600205
KHBV 130630Z AUTO 16008KT 10SM CLR 26/20 A3001 RMK AO2 T02610204
KHBV 130610Z AUTO 17008KT 10SM CLR 26/20 A3002 RMK AO2 T02610202
KHBV 130550Z AUTO 17007G15KT 10SM CLR 26/20 A3002 RMK AO2 T02610201 10403 20149 404030149
KHBV 130530Z AUTO 16008KT 10SM CLR 26/20 A3001 RMK AO2 T02600202
KHBV 130510Z AUTO 16010KT 10SM CLR 26/20 A3000 RMK AO2 T02570203
KHBV 130450Z AUTO 15009G14KT 10SM CLR 26/20 A3000 RMK AO2 T02570202
KHBV 130430Z AUTO 13010KT 10SM CLR 26/20 A2999 RMK AO2 T02590201